Terminal Aerodrome Forecast
Issued by NWS Boston, MA

Home | Current Version | Previous Version | Text Only | Print | Product List | Glossary On
Versions: 1 2 3 4 5 6 7 8 9 10 11 12 13 14 15 16 17 18 19 20 21 22 23 24 25 26 27 28 29 30 31 32 33 34 35 36 37 38 39 40
496
FTUS41 KBOX 112327
TAFORH
TAF
KORH 112327Z 1200/1224 VRB03KT P6SM BKN130
     FM120800 10004KT P6SM OVC030
     FM121100 09006KT P6SM VCSH OVC025
     FM121300 10006KT P6SM -SNPL OVC015
     FM121400 11006KT 6SM -FZRAPLSN OVC015
     FM121600 12007KT 5SM -RA OVC008
     FM122100 18007KT P6SM VCSH OVC003
     FM122300 23007KT P6SM VCSH OVC008=

USA.gov is the U.S. government's official web portal to all federal, state and local government web resources and services.